Terminal Aerodrome Forecast
Issued by NWS

Home | Current Version | Previous Version | Text Only | Print | Product List | Glossary On
Versions: 1 2 3 4 5 6 7 8 9 10 11 12 13 14 15 16 17 18 19 20 21 22 23 24
559
FTUS46 KMFR 232343
TAFLMT
TAF
KLMT 232343Z 2400/2424 23008KT P6SM -SHRA VCTS SCT050CB BKN080
     FM240500 17006KT P6SM BKN050 BKN090=

USA.gov is the U.S. government's official web portal to all federal, state and local government web resources and services.